sensor_id;sensor_type;location;lat;lon;timestamp;P1;durP1;ratioP1;P2;durP2;ratioP2
61553;SDS011;47425;51.976;5.326;2024-01-10T00:01:16;6.43;;;2.97;;
61553;SDS011;47425;51.976;5.326;2024-01-10T00:03:43;4.13;;;2.88;;
61553;SDS011;47425;51.976;5.326;2024-01-10T00:06:11;4.43;;;2.75;;
61553;SDS011;47425;51.976;5.326;2024-01-10T00:08:38;3.90;;;2.40;;
61553;SDS011;47425;51.976;5.326;2024-01-10T00:11:05;6.10;;;3.22;;
61553;SDS011;47425;51.976;5.326;2024-01-10T00:13:31;6.93;;;3.33;;
61553;SDS011;47425;51.976;5.326;2024-01-10T00:15:59;4.20;;;2.60;;
61553;SDS011;47425;51.976;5.326;2024-01-10T00:20:54;4.80;;;3.45;;
61553;SDS011;47425;51.976;5.326;2024-01-10T00:23:21;5.82;;;3.05;;
61553;SDS011;47425;51.976;5.326;2024-01-10T00:25:48;4.97;;;2.90;;
61553;SDS011;47425;51.976;5.326;2024-01-10T00:28:15;5.35;;;3.05;;
61553;SDS011;47425;51.976;5.326;2024-01-10T00:30:44;5.43;;;3.20;;
61553;SDS011;47425;51.976;5.326;2024-01-10T00:33:14;4.57;;;2.90;;
61553;SDS011;47425;51.976;5.326;2024-01-10T00:35:40;5.43;;;2.72;;
61553;SDS011;47425;51.976;5.326;2024-01-10T00:38:07;4.63;;;3.45;;
61553;SDS011;47425;51.976;5.326;2024-01-10T00:40:35;5.82;;;3.15;;
61553;SDS011;47425;51.976;5.326;2024-01-10T00:43:02;5.72;;;3.30;;
61553;SDS011;47425;51.976;5.326;2024-01-10T00:45:30;3.80;;;2.83;;
61553;SDS011;47425;51.976;5.326;2024-01-10T00:47:57;6.22;;;3.20;;
61553;SDS011;47425;51.976;5.326;2024-01-10T00:50:25;3.95;;;2.80;;
61553;SDS011;47425;51.976;5.326;2024-01-10T00:52:51;5.95;;;3.47;;
61553;SDS011;47425;51.976;5.326;2024-01-10T00:55:19;6.38;;;3.08;;
61553;SDS011;47425;51.976;5.326;2024-01-10T00:57:47;5.78;;;3.05;;
61553;SDS011;47425;51.976;5.326;2024-01-10T01:00:14;4.97;;;2.72;;
61553;SDS011;47425;51.976;5.326;2024-01-10T01:02:41;4.70;;;2.67;;
61553;SDS011;47425;51.976;5.326;2024-01-10T01:05:07;3.80;;;2.75;;
61553;SDS011;47425;51.976;5.326;2024-01-10T01:07:36;6.15;;;2.50;;
61553;SDS011;47425;51.976;5.326;2024-01-10T01:12:30;7.18;;;2.80;;
61553;SDS011;47425;51.976;5.326;2024-01-10T01:14:57;5.90;;;2.97;;
61553;SDS011;47425;51.976;5.326;2024-01-10T01:17:24;3.97;;;2.80;;
61553;SDS011;47425;51.976;5.326;2024-01-10T01:19:50;6.30;;;3.30;;
61553;SDS011;47425;51.976;5.326;2024-01-10T01:22:18;5.95;;;3.25;;
61553;SDS011;47425;51.976;5.326;2024-01-10T01:24:46;5.15;;;3.38;;
61553;SDS011;47425;51.976;5.326;2024-01-10T01:27:13;4.82;;;2.75;;
61553;SDS011;47425;51.976;5.326;2024-01-10T01:29:40;6.50;;;3.40;;
61553;SDS011;47425;51.976;5.326;2024-01-10T01:32:06;5.55;;;3.08;;
61553;SDS011;47425;51.976;5.326;2024-01-10T01:34:33;4.75;;;3.00;;
61553;SDS011;47425;51.976;5.326;2024-01-10T01:37:01;8.13;;;3.33;;
61553;SDS011;47425;51.976;5.326;2024-01-10T01:39:28;6.90;;;3.03;;
61553;SDS011;47425;51.976;5.326;2024-01-10T01:41:56;6.68;;;3.10;;
61553;SDS011;47425;51.976;5.326;2024-01-10T01:44:23;4.93;;;3.42;;
61553;SDS011;47425;51.976;5.326;2024-01-10T01:46:50;5.35;;;3.60;;
61553;SDS011;47425;51.976;5.326;2024-01-10T01:49:18;7.05;;;3.17;;
61553;SDS011;47425;51.976;5.326;2024-01-10T01:51:45;6.80;;;4.13;;
61553;SDS011;47425;51.976;5.326;2024-01-10T01:54:12;5.43;;;3.25;;
61553;SDS011;47425;51.976;5.326;2024-01-10T01:56:39;5.70;;;3.40;;
61553;SDS011;47425;51.976;5.326;2024-01-10T01:59:09;7.63;;;3.47;;
61553;SDS011;47425;51.976;5.326;2024-01-10T02:01:38;5.22;;;2.97;;
61553;SDS011;47425;51.976;5.326;2024-01-10T02:04:05;7.57;;;3.28;;
61553;SDS011;47425;51.976;5.326;2024-01-10T02:06:32;6.43;;;3.33;;
61553;SDS011;47425;51.976;5.326;2024-01-10T02:08:59;9.07;;;3.30;;
61553;SDS011;47425;51.976;5.326;2024-01-10T02:11:26;7.13;;;3.40;;
61553;SDS011;47425;51.976;5.326;2024-01-10T02:13:54;4.85;;;3.45;;
61553;SDS011;47425;51.976;5.326;2024-01-10T02:16:22;7.13;;;3.85;;
61553;SDS011;47425;51.976;5.326;2024-01-10T02:18:49;7.00;;;3.35;;
61553;SDS011;47425;51.976;5.326;2024-01-10T02:21:16;5.00;;;3.38;;
61553;SDS011;47425;51.976;5.326;2024-01-10T02:23:46;7.05;;;3.38;;
61553;SDS011;47425;51.976;5.326;2024-01-10T02:26:15;6.68;;;3.17;;
61553;SDS011;47425;51.976;5.326;2024-01-10T02:28:43;4.40;;;3.13;;
61553;SDS011;47425;51.976;5.326;2024-01-10T02:31:10;6.90;;;3.55;;
61553;SDS011;47425;51.976;5.326;2024-01-10T02:33:37;6.90;;;3.72;;
61553;SDS011;47425;51.976;5.326;2024-01-10T02:36:04;8.75;;;4.22;;
61553;SDS011;47425;51.976;5.326;2024-01-10T02:38:31;6.00;;;3.85;;
61553;SDS011;47425;51.976;5.326;2024-01-10T02:40:59;9.60;;;3.60;;
61553;SDS011;47425;51.976;5.326;2024-01-10T02:43:28;5.35;;;3.63;;
61553;SDS011;47425;51.976;5.326;2024-01-10T02:45:55;6.18;;;3.72;;
61553;SDS011;47425;51.976;5.326;2024-01-10T02:48:22;6.13;;;3.60;;
61553;SDS011;47425;51.976;5.326;2024-01-10T02:50:48;8.90;;;3.63;;
61553;SDS011;47425;51.976;5.326;2024-01-10T02:53:16;6.15;;;3.40;;
61553;SDS011;47425;51.976;5.326;2024-01-10T02:55:43;6.60;;;3.55;;
61553;SDS011;47425;51.976;5.326;2024-01-10T02:58:11;7.18;;;3.80;;
61553;SDS011;47425;51.976;5.326;2024-01-10T03:00:39;5.93;;;3.70;;
61553;SDS011;47425;51.976;5.326;2024-01-10T03:03:06;5.43;;;3.10;;
61553;SDS011;47425;51.976;5.326;2024-01-10T03:05:34;6.15;;;3.83;;
61553;SDS011;47425;51.976;5.326;2024-01-10T03:08:00;7.40;;;3.40;;
61553;SDS011;47425;51.976;5.326;2024-01-10T03:10:27;5.78;;;3.70;;
61553;SDS011;47425;51.976;5.326;2024-01-10T03:12:54;7.40;;;3.70;;
61553;SDS011;47425;51.976;5.326;2024-01-10T03:15:20;6.68;;;4.20;;
61553;SDS011;47425;51.976;5.326;2024-01-10T03:17:48;4.78;;;3.60;;
61553;SDS011;47425;51.976;5.326;2024-01-10T03:22:43;6.55;;;3.80;;
61553;SDS011;47425;51.976;5.326;2024-01-10T03:25:10;7.00;;;3.70;;
61553;SDS011;47425;51.976;5.326;2024-01-10T03:27:36;5.05;;;3.30;;
61553;SDS011;47425;51.976;5.326;2024-01-10T03:30:03;4.50;;;3.00;;
61553;SDS011;47425;51.976;5.326;2024-01-10T03:32:32;7.05;;;3.75;;
61553;SDS011;47425;51.976;5.326;2024-01-10T03:35:00;6.63;;;3.83;;
61553;SDS011;47425;51.976;5.326;2024-01-10T03:37:27;6.07;;;3.72;;
61553;SDS011;47425;51.976;5.326;2024-01-10T03:39:53;5.43;;;3.60;;
61553;SDS011;47425;51.976;5.326;2024-01-10T03:42:20;5.18;;;3.58;;
61553;SDS011;47425;51.976;5.326;2024-01-10T03:44:48;5.38;;;3.58;;
61553;SDS011;47425;51.976;5.326;2024-01-10T03:47:14;7.03;;;4.15;;
61553;SDS011;47425;51.976;5.326;2024-01-10T03:49:41;5.80;;;4.07;;
61553;SDS011;47425;51.976;5.326;2024-01-10T03:52:09;8.48;;;4.07;;
61553;SDS011;47425;51.976;5.326;2024-01-10T03:54:36;7.50;;;4.18;;
61553;SDS011;47425;51.976;5.326;2024-01-10T03:59:31;6.43;;;3.50;;
61553;SDS011;47425;51.976;5.326;2024-01-10T04:01:58;5.72;;;3.58;;
61553;SDS011;47425;51.976;5.326;2024-01-10T04:04:25;5.68;;;3.50;;
61553;SDS011;47425;51.976;5.326;2024-01-10T04:06:52;7.72;;;3.90;;
61553;SDS011;47425;51.976;5.326;2024-01-10T04:09:21;7.43;;;3.65;;
61553;SDS011;47425;51.976;5.326;2024-01-10T04:11:48;7.05;;;4.22;;
61553;SDS011;47425;51.976;5.326;2024-01-10T04:14:14;5.82;;;3.50;;
61553;SDS011;47425;51.976;5.326;2024-01-10T04:16:41;9.90;;;4.10;;
61553;SDS011;47425;51.976;5.326;2024-01-10T04:19:08;5.25;;;3.47;;
61553;SDS011;47425;51.976;5.326;2024-01-10T04:21:36;7.63;;;3.53;;
61553;SDS011;47425;51.976;5.326;2024-01-10T04:24:03;6.32;;;3.50;;
61553;SDS011;47425;51.976;5.326;2024-01-10T04:26:31;9.60;;;4.25;;
61553;SDS011;47425;51.976;5.326;2024-01-10T04:28:58;5.57;;;3.77;;
61553;SDS011;47425;51.976;5.326;2024-01-10T04:31:24;5.75;;;3.85;;
61553;SDS011;47425;51.976;5.326;2024-01-10T04:33:51;9.15;;;4.68;;
61553;SDS011;47425;51.976;5.326;2024-01-10T04:36:19;6.72;;;4.20;;
61553;SDS011;47425;51.976;5.326;2024-01-10T04:38:45;10.80;;;4.70;;
61553;SDS011;47425;51.976;5.326;2024-01-10T04:41:12;8.68;;;4.32;;
61553;SDS011;47425;51.976;5.326;2024-01-10T04:43:40;7.20;;;4.38;;
61553;SDS011;47425;51.976;5.326;2024-01-10T04:46:07;10.80;;;4.10;;
61553;SDS011;47425;51.976;5.326;2024-01-10T04:48:36;6.57;;;4.50;;
61553;SDS011;47425;51.976;5.326;2024-01-10T04:51:03;11.73;;;4.13;;
61553;SDS011;47425;51.976;5.326;2024-01-10T04:53:30;7.20;;;4.40;;
61553;SDS011;47425;51.976;5.326;2024-01-10T04:55:56;6.72;;;4.28;;
61553;SDS011;47425;51.976;5.326;2024-01-10T04:58:23;6.05;;;3.78;;
61553;SDS011;47425;51.976;5.326;2024-01-10T05:00:52;6.63;;;3.70;;
61553;SDS011;47425;51.976;5.326;2024-01-10T05:03:19;6.57;;;3.72;;
61553;SDS011;47425;51.976;5.326;2024-01-10T05:05:45;7.03;;;4.03;;
61553;SDS011;47425;51.976;5.326;2024-01-10T05:08:12;6.10;;;3.65;;
61553;SDS011;47425;51.976;5.326;2024-01-10T05:10:39;6.78;;;4.45;;
61553;SDS011;47425;51.976;5.326;2024-01-10T05:13:07;8.07;;;4.03;;
61553;SDS011;47425;51.976;5.326;2024-01-10T05:15:33;6.38;;;3.65;;
61553;SDS011;47425;51.976;5.326;2024-01-10T05:18:01;6.88;;;3.95;;
61553;SDS011;47425;51.976;5.326;2024-01-10T05:20:28;7.38;;;4.22;;
61553;SDS011;47425;51.976;5.326;2024-01-10T05:22:55;6.43;;;3.83;;
61553;SDS011;47425;51.976;5.326;2024-01-10T05:25:24;8.07;;;4.72;;
61553;SDS011;47425;51.976;5.326;2024-01-10T05:27:52;7.53;;;4.40;;
61553;SDS011;47425;51.976;5.326;2024-01-10T05:30:19;7.28;;;4.38;;
61553;SDS011;47425;51.976;5.326;2024-01-10T05:32:45;9.25;;;4.75;;
61553;SDS011;47425;51.976;5.326;2024-01-10T05:35:15;8.05;;;3.95;;
61553;SDS011;47425;51.976;5.326;2024-01-10T05:37:42;9.40;;;4.63;;
61553;SDS011;47425;51.976;5.326;2024-01-10T05:40:09;6.80;;;4.13;;
61553;SDS011;47425;51.976;5.326;2024-01-10T05:42:36;5.82;;;4.20;;
61553;SDS011;47425;51.976;5.326;2024-01-10T05:45:03;6.03;;;3.85;;
61553;SDS011;47425;51.976;5.326;2024-01-10T05:47:31;6.70;;;3.83;;
61553;SDS011;47425;51.976;5.326;2024-01-10T05:49:59;7.70;;;4.40;;
61553;SDS011;47425;51.976;5.326;2024-01-10T05:52:27;7.25;;;4.80;;
61553;SDS011;47425;51.976;5.326;2024-01-10T05:54:54;5.57;;;4.05;;
61553;SDS011;47425;51.976;5.326;2024-01-10T05:57:21;6.28;;;4.05;;
61553;SDS011;47425;51.976;5.326;2024-01-10T05:59:47;7.07;;;4.43;;
61553;SDS011;47425;51.976;5.326;2024-01-10T06:02:14;7.20;;;4.88;;
61553;SDS011;47425;51.976;5.326;2024-01-10T06:04:41;8.48;;;4.72;;
61553;SDS011;47425;51.976;5.326;2024-01-10T06:07:08;8.52;;;4.18;;
61553;SDS011;47425;51.976;5.326;2024-01-10T06:09:36;7.10;;;4.50;;
61553;SDS011;47425;51.976;5.326;2024-01-10T06:12:05;11.85;;;4.28;;
61553;SDS011;47425;51.976;5.326;2024-01-10T06:14:33;7.10;;;4.30;;
61553;SDS011;47425;51.976;5.326;2024-01-10T06:17:01;9.07;;;4.95;;
61553;SDS011;47425;51.976;5.326;2024-01-10T06:19:29;7.00;;;4.30;;
61553;SDS011;47425;51.976;5.326;2024-01-10T06:21:56;8.48;;;4.47;;
61553;SDS011;47425;51.976;5.326;2024-01-10T06:24:22;6.95;;;4.43;;
61553;SDS011;47425;51.976;5.326;2024-01-10T06:26:50;7.35;;;4.22;;
61553;SDS011;47425;51.976;5.326;2024-01-10T06:29:18;7.93;;;4.32;;
61553;SDS011;47425;51.976;5.326;2024-01-10T06:31:45;8.20;;;4.80;;
61553;SDS011;47425;51.976;5.326;2024-01-10T06:34:12;10.05;;;5.07;;
61553;SDS011;47425;51.976;5.326;2024-01-10T06:36:39;8.35;;;4.90;;
61553;SDS011;47425;51.976;5.326;2024-01-10T06:39:06;9.82;;;5.35;;
61553;SDS011;47425;51.976;5.326;2024-01-10T06:41:34;8.13;;;4.78;;
61553;SDS011;47425;51.976;5.326;2024-01-10T06:44:02;7.45;;;4.20;;
61553;SDS011;47425;51.976;5.326;2024-01-10T06:46:29;9.15;;;4.53;;
61553;SDS011;47425;51.976;5.326;2024-01-10T06:48:57;8.23;;;4.47;;
61553;SDS011;47425;51.976;5.326;2024-01-10T06:51:24;7.35;;;4.75;;
61553;SDS011;47425;51.976;5.326;2024-01-10T06:56:29;7.28;;;4.65;;
61553;SDS011;47425;51.976;5.326;2024-01-10T06:58:55;8.02;;;4.75;;
61553;SDS011;47425;51.976;5.326;2024-01-10T07:01:23;6.93;;;4.57;;
61553;SDS011;47425;51.976;5.326;2024-01-10T07:03:51;7.95;;;4.70;;
61553;SDS011;47425;51.976;5.326;2024-01-10T07:06:19;9.35;;;4.70;;
61553;SDS011;47425;51.976;5.326;2024-01-10T07:08:48;7.55;;;4.82;;
61553;SDS011;47425;51.976;5.326;2024-01-10T07:11:16;9.52;;;5.05;;
61553;SDS011;47425;51.976;5.326;2024-01-10T07:13:43;8.77;;;5.10;;
61553;SDS011;47425;51.976;5.326;2024-01-10T07:16:09;11.13;;;5.88;;
61553;SDS011;47425;51.976;5.326;2024-01-10T07:18:38;10.13;;;5.30;;
61553;SDS011;47425;51.976;5.326;2024-01-10T07:21:08;8.00;;;4.63;;
61553;SDS011;47425;51.976;5.326;2024-01-10T07:23:35;9.00;;;4.18;;
61553;SDS011;47425;51.976;5.326;2024-01-10T07:26:03;8.35;;;4.95;;
61553;SDS011;47425;51.976;5.326;2024-01-10T07:28:30;8.57;;;3.90;;
61553;SDS011;47425;51.976;5.326;2024-01-10T07:30:57;10.77;;;5.78;;
61553;SDS011;47425;51.976;5.326;2024-01-10T07:33:26;10.38;;;5.28;;
61553;SDS011;47425;51.976;5.326;2024-01-10T07:35:54;10.90;;;5.60;;
61553;SDS011;47425;51.976;5.326;2024-01-10T07:38:21;9.90;;;6.38;;
61553;SDS011;47425;51.976;5.326;2024-01-10T07:40:47;11.15;;;5.35;;
61553;SDS011;47425;51.976;5.326;2024-01-10T07:43:14;12.00;;;5.45;;
61553;SDS011;47425;51.976;5.326;2024-01-10T07:45:42;10.18;;;5.53;;
61553;SDS011;47425;51.976;5.326;2024-01-10T07:48:08;10.90;;;5.80;;
61553;SDS011;47425;51.976;5.326;2024-01-10T07:50:36;10.27;;;5.35;;
61553;SDS011;47425;51.976;5.326;2024-01-10T07:53:04;8.45;;;5.43;;
61553;SDS011;47425;51.976;5.326;2024-01-10T07:55:32;12.00;;;6.20;;
61553;SDS011;47425;51.976;5.326;2024-01-10T07:57:58;8.43;;;5.30;;
61553;SDS011;47425;51.976;5.326;2024-01-10T08:00:27;9.57;;;6.18;;
61553;SDS011;47425;51.976;5.326;2024-01-10T08:02:55;9.98;;;5.13;;
61553;SDS011;47425;51.976;5.326;2024-01-10T08:05:23;13.32;;;6.18;;
61553;SDS011;47425;51.976;5.326;2024-01-10T08:07:50;10.27;;;6.03;;
61553;SDS011;47425;51.976;5.326;2024-01-10T08:10:18;11.43;;;6.10;;
61553;SDS011;47425;51.976;5.326;2024-01-10T08:12:46;12.55;;;6.13;;
61553;SDS011;47425;51.976;5.326;2024-01-10T08:15:13;10.55;;;6.25;;
61553;SDS011;47425;51.976;5.326;2024-01-10T08:17:40;12.70;;;5.95;;
61553;SDS011;47425;51.976;5.326;2024-01-10T08:20:07;9.95;;;6.22;;
61553;SDS011;47425;51.976;5.326;2024-01-10T08:22:35;9.07;;;5.13;;
61553;SDS011;47425;51.976;5.326;2024-01-10T08:25:04;10.52;;;5.05;;
61553;SDS011;47425;51.976;5.326;2024-01-10T08:27:33;10.60;;;6.22;;
61553;SDS011;47425;51.976;5.326;2024-01-10T08:30:00;12.45;;;6.88;;
61553;SDS011;47425;51.976;5.326;2024-01-10T08:32:29;10.93;;;6.28;;
61553;SDS011;47425;51.976;5.326;2024-01-10T08:34:56;12.10;;;6.55;;
61553;SDS011;47425;51.976;5.326;2024-01-10T08:37:42;16.65;;;6.88;;
61553;SDS011;47425;51.976;5.326;2024-01-10T08:40:11;11.55;;;6.20;;
61553;SDS011;47425;51.976;5.326;2024-01-10T08:45:08;11.98;;;6.57;;
61553;SDS011;47425;51.976;5.326;2024-01-10T08:47:36;10.95;;;6.40;;
61553;SDS011;47425;51.976;5.326;2024-01-10T08:50:03;9.23;;;5.82;;
61553;SDS011;47425;51.976;5.326;2024-01-10T08:52:35;11.45;;;6.25;;
61553;SDS011;47425;51.976;5.326;2024-01-10T08:55:03;11.57;;;5.93;;
61553;SDS011;47425;51.976;5.326;2024-01-10T08:57:31;13.63;;;6.70;;
61553;SDS011;47425;51.976;5.326;2024-01-10T08:59:59;13.93;;;7.20;;
61553;SDS011;47425;51.976;5.326;2024-01-10T09:02:26;15.13;;;6.68;;
61553;SDS011;47425;51.976;5.326;2024-01-10T09:04:54;16.88;;;7.18;;
61553;SDS011;47425;51.976;5.326;2024-01-10T09:07:20;9.02;;;4.93;;
61553;SDS011;47425;51.976;5.326;2024-01-10T09:09:47;12.30;;;6.88;;
61553;SDS011;47425;51.976;5.326;2024-01-10T09:12:14;15.98;;;6.32;;
61553;SDS011;47425;51.976;5.326;2024-01-10T09:14:41;12.48;;;6.72;;
61553;SDS011;47425;51.976;5.326;2024-01-10T09:17:10;13.98;;;6.95;;
61553;SDS011;47425;51.976;5.326;2024-01-10T09:19:37;12.38;;;7.00;;
61553;SDS011;47425;51.976;5.326;2024-01-10T09:22:04;9.77;;;6.30;;
61553;SDS011;47425;51.976;5.326;2024-01-10T09:24:31;12.10;;;6.10;;
61553;SDS011;47425;51.976;5.326;2024-01-10T09:26:57;12.40;;;6.57;;
61553;SDS011;47425;51.976;5.326;2024-01-10T09:29:24;13.77;;;7.32;;
61553;SDS011;47425;51.976;5.326;2024-01-10T09:31:53;16.02;;;7.68;;
61553;SDS011;47425;51.976;5.326;2024-01-10T09:34:23;10.73;;;6.50;;
61553;SDS011;47425;51.976;5.326;2024-01-10T09:36:49;13.80;;;6.53;;
61553;SDS011;47425;51.976;5.326;2024-01-10T09:39:17;11.57;;;5.55;;
61553;SDS011;47425;51.976;5.326;2024-01-10T09:41:46;12.55;;;6.72;;
61553;SDS011;47425;51.976;5.326;2024-01-10T09:44:17;13.93;;;6.97;;
61553;SDS011;47425;51.976;5.326;2024-01-10T09:46:45;10.52;;;5.53;;
61553;SDS011;47425;51.976;5.326;2024-01-10T09:49:14;10.68;;;6.30;;
61553;SDS011;47425;51.976;5.326;2024-01-10T09:51:42;14.82;;;7.25;;
61553;SDS011;47425;51.976;5.326;2024-01-10T09:54:10;12.85;;;7.13;;
61553;SDS011;47425;51.976;5.326;2024-01-10T09:56:38;11.90;;;6.00;;
61553;SDS011;47425;51.976;5.326;2024-01-10T09:59:05;13.27;;;7.03;;
61553;SDS011;47425;51.976;5.326;2024-01-10T10:01:36;15.25;;;7.68;;
61553;SDS011;47425;51.976;5.326;2024-01-10T10:04:04;13.88;;;7.32;;
61553;SDS011;47425;51.976;5.326;2024-01-10T10:06:32;12.80;;;6.45;;
61553;SDS011;47425;51.976;5.326;2024-01-10T10:09:00;14.70;;;7.57;;
61553;SDS011;47425;51.976;5.326;2024-01-10T10:11:27;11.07;;;7.25;;
61553;SDS011;47425;51.976;5.326;2024-01-10T10:13:54;13.70;;;6.20;;
61553;SDS011;47425;51.976;5.326;2024-01-10T10:16:23;13.10;;;7.32;;
61553;SDS011;47425;51.976;5.326;2024-01-10T10:18:51;11.57;;;6.82;;
61553;SDS011;47425;51.976;5.326;2024-01-10T10:21:24;8.45;;;5.18;;
61553;SDS011;47425;51.976;5.326;2024-01-10T10:23:58;12.02;;;6.50;;
61553;SDS011;47425;51.976;5.326;2024-01-10T10:26:28;11.82;;;6.43;;
61553;SDS011;47425;51.976;5.326;2024-01-10T10:31:22;13.38;;;7.00;;
61553;SDS011;47425;51.976;5.326;2024-01-10T10:33:50;15.00;;;6.82;;
61553;SDS011;47425;51.976;5.326;2024-01-10T10:38:46;13.52;;;7.32;;
61553;SDS011;47425;51.976;5.326;2024-01-10T10:41:15;13.57;;;7.07;;
61553;SDS011;47425;51.976;5.326;2024-01-10T10:43:43;13.50;;;7.70;;
61553;SDS011;47425;51.976;5.326;2024-01-10T10:46:11;11.85;;;6.10;;
61553;SDS011;47425;51.976;5.326;2024-01-10T10:48:38;14.32;;;7.38;;
61553;SDS011;47425;51.976;5.326;2024-01-10T10:51:05;10.20;;;5.78;;
61553;SDS011;47425;51.976;5.326;2024-01-10T10:53:34;12.05;;;6.68;;
61553;SDS011;47425;51.976;5.326;2024-01-10T10:56:02;15.63;;;7.10;;
61553;SDS011;47425;51.976;5.326;2024-01-10T10:58:32;15.25;;;7.13;;
61553;SDS011;47425;51.976;5.326;2024-01-10T11:01:04;11.48;;;6.47;;
61553;SDS011;47425;51.976;5.326;2024-01-10T11:03:34;9.05;;;5.75;;
61553;SDS011;47425;51.976;5.326;2024-01-10T11:06:03;12.88;;;7.35;;
61553;SDS011;47425;51.976;5.326;2024-01-10T11:08:32;11.35;;;5.95;;
61553;SDS011;47425;51.976;5.326;2024-01-10T11:11:03;13.38;;;6.78;;
61553;SDS011;47425;51.976;5.326;2024-01-10T11:13:42;18.02;;;7.25;;
61553;SDS011;47425;51.976;5.326;2024-01-10T11:16:33;12.05;;;5.60;;
61553;SDS011;47425;51.976;5.326;2024-01-10T11:19:25;10.50;;;6.40;;
61553;SDS011;47425;51.976;5.326;2024-01-10T11:22:22;13.70;;;7.15;;
61553;SDS011;47425;51.976;5.326;2024-01-10T11:25:05;15.35;;;7.32;;
61553;SDS011;47425;51.976;5.326;2024-01-10T11:27:32;13.13;;;6.95;;
61553;SDS011;47425;51.976;5.326;2024-01-10T11:29:59;11.00;;;6.25;;
61553;SDS011;47425;51.976;5.326;2024-01-10T11:32:31;11.32;;;6.45;;
61553;SDS011;47425;51.976;5.326;2024-01-10T11:34:59;12.02;;;7.15;;
61553;SDS011;47425;51.976;5.326;2024-01-10T11:37:38;12.85;;;7.35;;
61553;SDS011;47425;51.976;5.326;2024-01-10T11:42:40;10.43;;;6.30;;
61553;SDS011;47425;51.976;5.326;2024-01-10T11:45:07;12.48;;;7.00;;
61553;SDS011;47425;51.976;5.326;2024-01-10T11:47:35;12.43;;;7.22;;
61553;SDS011;47425;51.976;5.326;2024-01-10T11:50:06;15.95;;;8.15;;
61553;SDS011;47425;51.976;5.326;2024-01-10T11:52:36;13.15;;;7.20;;
61553;SDS011;47425;51.976;5.326;2024-01-10T11:55:03;14.63;;;7.10;;
61553;SDS011;47425;51.976;5.326;2024-01-10T11:57:32;14.85;;;7.72;;
61553;SDS011;47425;51.976;5.326;2024-01-10T12:00:00;11.52;;;6.90;;
61553;SDS011;47425;51.976;5.326;2024-01-10T12:02:30;14.52;;;8.10;;
61553;SDS011;47425;51.976;5.326;2024-01-10T12:04:58;14.82;;;6.57;;
61553;SDS011;47425;51.976;5.326;2024-01-10T12:07:26;14.30;;;6.85;;
61553;SDS011;47425;51.976;5.326;2024-01-10T12:09:53;13.23;;;7.97;;
61553;SDS011;47425;51.976;5.326;2024-01-10T12:12:23;11.75;;;7.20;;
61553;SDS011;47425;51.976;5.326;2024-01-10T12:14:50;13.30;;;6.57;;
61553;SDS011;47425;51.976;5.326;2024-01-10T12:17:17;13.10;;;6.57;;
61553;SDS011;47425;51.976;5.326;2024-01-10T12:19:44;9.38;;;5.95;;
61553;SDS011;47425;51.976;5.326;2024-01-10T12:22:14;12.37;;;7.00;;
61553;SDS011;47425;51.976;5.326;2024-01-10T12:24:44;10.20;;;5.95;;
61553;SDS011;47425;51.976;5.326;2024-01-10T12:27:15;13.68;;;7.28;;
61553;SDS011;47425;51.976;5.326;2024-01-10T12:29:43;11.32;;;6.57;;
61553;SDS011;47425;51.976;5.326;2024-01-10T12:32:09;9.93;;;5.60;;
61553;SDS011;47425;51.976;5.326;2024-01-10T12:34:37;13.27;;;7.13;;
61553;SDS011;47425;51.976;5.326;2024-01-10T12:37:20;11.73;;;7.00;;
61553;SDS011;47425;51.976;5.326;2024-01-10T12:39:48;11.35;;;6.65;;
61553;SDS011;47425;51.976;5.326;2024-01-10T12:42:15;8.63;;;5.53;;
61553;SDS011;47425;51.976;5.326;2024-01-10T12:44:43;10.63;;;5.95;;
61553;SDS011;47425;51.976;5.326;2024-01-10T12:47:17;7.45;;;5.00;;
61553;SDS011;47425;51.976;5.326;2024-01-10T12:49:44;12.02;;;6.63;;
61553;SDS011;47425;51.976;5.326;2024-01-10T12:52:12;11.18;;;6.82;;
61553;SDS011;47425;51.976;5.326;2024-01-10T12:54:41;11.73;;;5.50;;
61553;SDS011;47425;51.976;5.326;2024-01-10T12:59:35;7.30;;;4.65;;
61553;SDS011;47425;51.976;5.326;2024-01-10T13:02:02;14.13;;;6.95;;
61553;SDS011;47425;51.976;5.326;2024-01-10T13:04:33;12.07;;;6.97;;
61553;SDS011;47425;51.976;5.326;2024-01-10T13:07:02;10.20;;;5.53;;
61553;SDS011;47425;51.976;5.326;2024-01-10T13:09:29;9.82;;;5.57;;
61553;SDS011;47425;51.976;5.326;2024-01-10T13:11:57;13.85;;;7.80;;
61553;SDS011;47425;51.976;5.326;2024-01-10T13:14:25;8.20;;;5.20;;
61553;SDS011;47425;51.976;5.326;2024-01-10T13:16:52;12.65;;;7.30;;
61553;SDS011;47425;51.976;5.326;2024-01-10T13:19:20;19.60;;;9.17;;
61553;SDS011;47425;51.976;5.326;2024-01-10T13:21:47;12.63;;;6.85;;
61553;SDS011;47425;51.976;5.326;2024-01-10T13:24:14;14.95;;;7.53;;
61553;SDS011;47425;51.976;5.326;2024-01-10T13:26:40;15.88;;;8.52;;
61553;SDS011;47425;51.976;5.326;2024-01-10T13:29:08;14.65;;;7.93;;
61553;SDS011;47425;51.976;5.326;2024-01-10T13:34:03;9.35;;;5.45;;
61553;SDS011;47425;51.976;5.326;2024-01-10T13:36:30;10.00;;;5.70;;
61553;SDS011;47425;51.976;5.326;2024-01-10T13:38:57;7.47;;;4.90;;
61553;SDS011;47425;51.976;5.326;2024-01-10T13:41:23;7.35;;;4.78;;
61553;SDS011;47425;51.976;5.326;2024-01-10T13:43:51;8.88;;;5.53;;
61553;SDS011;47425;51.976;5.326;2024-01-10T13:46:20;10.60;;;5.53;;
61553;SDS011;47425;51.976;5.326;2024-01-10T13:48:47;11.90;;;7.63;;
61553;SDS011;47425;51.976;5.326;2024-01-10T13:51:14;14.07;;;8.07;;
61553;SDS011;47425;51.976;5.326;2024-01-10T13:53:41;13.27;;;7.20;;
61553;SDS011;47425;51.976;5.326;2024-01-10T13:56:09;11.82;;;7.43;;
61553;SDS011;47425;51.976;5.326;2024-01-10T13:58:37;12.20;;;7.40;;
61553;SDS011;47425;51.976;5.326;2024-01-10T14:01:04;11.63;;;7.43;;
61553;SDS011;47425;51.976;5.326;2024-01-10T14:03:32;10.07;;;5.80;;
61553;SDS011;47425;51.976;5.326;2024-01-10T14:05:58;11.75;;;7.07;;
61553;SDS011;47425;51.976;5.326;2024-01-10T14:08:26;10.00;;;5.95;;
61553;SDS011;47425;51.976;5.326;2024-01-10T14:10:53;13.95;;;6.95;;
61553;SDS011;47425;51.976;5.326;2024-01-10T14:13:20;11.55;;;6.10;;
61553;SDS011;47425;51.976;5.326;2024-01-10T14:15:49;11.07;;;6.40;;
61553;SDS011;47425;51.976;5.326;2024-01-10T14:18:16;14.75;;;7.85;;
61553;SDS011;47425;51.976;5.326;2024-01-10T14:20:45;13.98;;;7.65;;
61553;SDS011;47425;51.976;5.326;2024-01-10T14:23:12;13.52;;;7.72;;
61553;SDS011;47425;51.976;5.326;2024-01-10T14:25:39;13.18;;;7.47;;
61553;SDS011;47425;51.976;5.326;2024-01-10T14:28:06;14.23;;;7.75;;
61553;SDS011;47425;51.976;5.326;2024-01-10T14:30:32;11.30;;;6.50;;
61553;SDS011;47425;51.976;5.326;2024-01-10T14:33:00;10.80;;;6.45;;
61553;SDS011;47425;51.976;5.326;2024-01-10T14:35:27;13.43;;;7.45;;
61553;SDS011;47425;51.976;5.326;2024-01-10T14:37:55;13.98;;;7.90;;
61553;SDS011;47425;51.976;5.326;2024-01-10T14:40:22;11.77;;;7.15;;
61553;SDS011;47425;51.976;5.326;2024-01-10T14:42:49;14.32;;;7.75;;
61553;SDS011;47425;51.976;5.326;2024-01-10T14:45:16;12.57;;;7.90;;
61553;SDS011;47425;51.976;5.326;2024-01-10T14:47:43;10.63;;;6.53;;
61553;SDS011;47425;51.976;5.326;2024-01-10T14:50:10;14.60;;;8.43;;
61553;SDS011;47425;51.976;5.326;2024-01-10T14:52:37;15.75;;;8.45;;
61553;SDS011;47425;51.976;5.326;2024-01-10T14:55:05;12.50;;;6.47;;
61553;SDS011;47425;51.976;5.326;2024-01-10T14:57:32;20.00;;;9.10;;
61553;SDS011;47425;51.976;5.326;2024-01-10T15:00:00;13.20;;;7.30;;
61553;SDS011;47425;51.976;5.326;2024-01-10T15:02:28;15.75;;;8.57;;
61553;SDS011;47425;51.976;5.326;2024-01-10T15:04:55;10.48;;;5.88;;
61553;SDS011;47425;51.976;5.326;2024-01-10T15:07:21;12.38;;;7.40;;
61553;SDS011;47425;51.976;5.326;2024-01-10T15:09:48;13.77;;;7.63;;
61553;SDS011;47425;51.976;5.326;2024-01-10T15:12:17;18.63;;;9.07;;